sensor_id;sensor_type;location;lat;lon;timestamp;pressure;altitude;pressure_sealevel;temperature;humidity
63691;BME280;49837;57.280;27.070;2023-08-31T00:00:10;99042.55;;;18.09;100.0
63691;BME280;49837;57.280;27.070;2023-08-31T00:01:08;99040.86;;;18.09;100.0
63691;BME280;49837;57.280;27.070;2023-08-31T00:02:09;99038.8;;;18.06;100.0
63691;BME280;49837;57.280;27.070;2023-08-31T00:03:09;99036.97;;;18.07;100.0
63691;BME280;49837;57.280;27.070;2023-08-31T00:04:09;99026.55;;;18.03;100.0
63691;BME280;49837;57.280;27.070;2023-08-31T00:05:10;99029.73;;;18.02;100.0
63691;BME280;49837;57.280;27.070;2023-08-31T00:06:10;99039.38;;;18.03;100.0
63691;BME280;49837;57.280;27.070;2023-08-31T00:07:11;99037.08;;;18.0;100.0
63691;BME280;49837;57.280;27.070;2023-08-31T00:08:11;99034.86;;;17.99;100.0
63691;BME280;49837;57.280;27.070;2023-08-31T00:09:11;99033.8;;;18.01;100.0
63691;BME280;49837;57.280;27.070;2023-08-31T00:10:12;99038.2;;;18.0;100.0
63691;BME280;49837;57.280;27.070;2023-08-31T00:11:12;99036.56;;;17.96;100.0
63691;BME280;49837;57.280;27.070;2023-08-31T00:12:12;99035.27;;;17.95;100.0
63691;BME280;49837;57.280;27.070;2023-08-31T00:13:13;99034.98;;;17.95;100.0
63691;BME280;49837;57.280;27.070;2023-08-31T00:14:13;99035.58;;;17.95;100.0
63691;BME280;49837;57.280;27.070;2023-08-31T00:15:14;99029.42;;;17.96;100.0
63691;BME280;49837;57.280;27.070;2023-08-31T00:16:14;99029.0;;;17.98;100.0
63691;BME280;49837;57.280;27.070;2023-08-31T00:17:14;99035.22;;;17.98;100.0
63691;BME280;49837;57.280;27.070;2023-08-31T00:18:15;99030.72;;;17.99;100.0
63691;BME280;49837;57.280;27.070;2023-08-31T00:19:16;99020.91;;;17.98;100.0
63691;BME280;49837;57.280;27.070;2023-08-31T00:20:16;99021.7;;;17.98;100.0
63691;BME280;49837;57.280;27.070;2023-08-31T00:21:16;99018.68;;;17.96;100.0
63691;BME280;49837;57.280;27.070;2023-08-31T00:22:16;99022.17;;;17.96;100.0
63691;BME280;49837;57.280;27.070;2023-08-31T00:23:17;99022.95;;;17.97;100.0
63691;BME280;49837;57.280;27.070;2023-08-31T00:24:17;99020.59;;;17.97;100.0
63691;BME280;49837;57.280;27.070;2023-08-31T00:25:18;99018.88;;;17.97;100.0
63691;BME280;49837;57.280;27.070;2023-08-31T00:26:18;99013.12;;;17.98;100.0
63691;BME280;49837;57.280;27.070;2023-08-31T00:27:18;99016.81;;;17.99;100.0
63691;BME280;49837;57.280;27.070;2023-08-31T00:28:19;99023.38;;;17.98;100.0
63691;BME280;49837;57.280;27.070;2023-08-31T00:29:19;99021.33;;;17.96;100.0
63691;BME280;49837;57.280;27.070;2023-08-31T00:30:20;99015.56;;;17.97;100.0
63691;BME280;49837;57.280;27.070;2023-08-31T00:31:20;99015.16;;;17.96;100.0
63691;BME280;49837;57.280;27.070;2023-08-31T00:32:20;99019.05;;;17.96;100.0
63691;BME280;49837;57.280;27.070;2023-08-31T00:33:21;99024.47;;;17.95;100.0
63691;BME280;49837;57.280;27.070;2023-08-31T00:34:21;99025.21;;;17.91;100.0
63691;BME280;49837;57.280;27.070;2023-08-31T00:35:22;99027.05;;;17.93;100.0
63691;BME280;49837;57.280;27.070;2023-08-31T00:36:22;99029.33;;;17.95;100.0
63691;BME280;49837;57.280;27.070;2023-08-31T00:37:23;99030.29;;;17.96;100.0
63691;BME280;49837;57.280;27.070;2023-08-31T00:38:23;99032.61;;;17.93;100.0
63691;BME280;49837;57.280;27.070;2023-08-31T00:39:23;99030.84;;;17.91;100.0
63691;BME280;49837;57.280;27.070;2023-08-31T00:40:27;99027.98;;;17.93;100.0
63691;BME280;49837;57.280;27.070;2023-08-31T00:41:24;99034.2;;;17.91;100.0
63691;BME280;49837;57.280;27.070;2023-08-31T00:42:25;99029.81;;;17.9;100.0
63691;BME280;49837;57.280;27.070;2023-08-31T00:43:25;99026.35;;;17.89;100.0
63691;BME280;49837;57.280;27.070;2023-08-31T00:44:25;99029.84;;;17.9;100.0
63691;BME280;49837;57.280;27.070;2023-08-31T00:45:26;99026.78;;;17.92;100.0
63691;BME280;49837;57.280;27.070;2023-08-31T00:46:26;99026.83;;;17.89;100.0
63691;BME280;49837;57.280;27.070;2023-08-31T00:47:27;99027.87;;;17.88;100.0
63691;BME280;49837;57.280;27.070;2023-08-31T00:48:27;99019.62;;;17.85;100.0
63691;BME280;49837;57.280;27.070;2023-08-31T00:49:28;99023.28;;;17.82;100.0
63691;BME280;49837;57.280;27.070;2023-08-31T00:50:28;99023.95;;;17.87;100.0
63691;BME280;49837;57.280;27.070;2023-08-31T00:51:28;99021.62;;;17.86;100.0
63691;BME280;49837;57.280;27.070;2023-08-31T00:52:28;99025.8;;;17.85;100.0
63691;BME280;49837;57.280;27.070;2023-08-31T00:53:30;99026.17;;;17.86;100.0
63691;BME280;49837;57.280;27.070;2023-08-31T00:54:29;99026.56;;;17.84;100.0
63691;BME280;49837;57.280;27.070;2023-08-31T00:55:30;99024.7;;;17.84;100.0
63691;BME280;49837;57.280;27.070;2023-08-31T00:56:30;99025.83;;;17.84;100.0
63691;BME280;49837;57.280;27.070;2023-08-31T00:57:31;99028.62;;;17.82;100.0
63691;BME280;49837;57.280;27.070;2023-08-31T00:58:31;99024.16;;;17.81;100.0
63691;BME280;49837;57.280;27.070;2023-08-31T00:59:31;99029.59;;;17.82;100.0
63691;BME280;49837;57.280;27.070;2023-08-31T01:01:41;99023.56;;;17.8;100.0
63691;BME280;49837;57.280;27.070;2023-08-31T01:05:06;99022.72;;;17.74;100.0
63691;BME280;49837;57.280;27.070;2023-08-31T01:11:14;99014.98;;;17.73;100.0
63691;BME280;49837;57.280;27.070;2023-08-31T01:12:10;99017.8;;;17.68;100.0
63691;BME280;49837;57.280;27.070;2023-08-31T01:13:14;99018.66;;;17.72;100.0
63691;BME280;49837;57.280;27.070;2023-08-31T01:14:16;99011.59;;;17.71;100.0
63691;BME280;49837;57.280;27.070;2023-08-31T01:15:14;99011.59;;;17.74;100.0
63691;BME280;49837;57.280;27.070;2023-08-31T01:16:14;99011.25;;;17.74;100.0
63691;BME280;49837;57.280;27.070;2023-08-31T01:17:15;99014.85;;;17.69;100.0
63691;BME280;49837;57.280;27.070;2023-08-31T01:18:17;99014.89;;;17.67;100.0
63691;BME280;49837;57.280;27.070;2023-08-31T01:20:26;99012.48;;;17.67;100.0
63691;BME280;49837;57.280;27.070;2023-08-31T01:21:25;99013.02;;;17.68;100.0
63691;BME280;49837;57.280;27.070;2023-08-31T01:23:31;99010.41;;;17.64;100.0
63691;BME280;49837;57.280;27.070;2023-08-31T01:24:26;99017.62;;;17.63;100.0
63691;BME280;49837;57.280;27.070;2023-08-31T01:25:27;99021.0;;;17.63;100.0
63691;BME280;49837;57.280;27.070;2023-08-31T01:26:27;99023.36;;;17.63;100.0
63691;BME280;49837;57.280;27.070;2023-08-31T01:27:28;99019.49;;;17.65;100.0
63691;BME280;49837;57.280;27.070;2023-08-31T01:28:28;99021.91;;;17.65;100.0
63691;BME280;49837;57.280;27.070;2023-08-31T01:29:29;99022.42;;;17.65;100.0
63691;BME280;49837;57.280;27.070;2023-08-31T01:30:32;99021.61;;;17.65;100.0
63691;BME280;49837;57.280;27.070;2023-08-31T01:31:29;99018.8;;;17.6;100.0
63691;BME280;49837;57.280;27.070;2023-08-31T01:32:31;99017.66;;;17.56;100.0
63691;BME280;49837;57.280;27.070;2023-08-31T01:33:30;99015.5;;;17.54;100.0
63691;BME280;49837;57.280;27.070;2023-08-31T01:34:30;99010.49;;;17.52;100.0
63691;BME280;49837;57.280;27.070;2023-08-31T01:35:38;99011.32;;;17.5;100.0
63691;BME280;49837;57.280;27.070;2023-08-31T01:36:35;99011.88;;;17.48;100.0
63691;BME280;49837;57.280;27.070;2023-08-31T01:38:41;99011.2;;;17.48;100.0
63691;BME280;49837;57.280;27.070;2023-08-31T01:39:46;99009.98;;;17.46;100.0
63691;BME280;49837;57.280;27.070;2023-08-31T01:41:50;99005.27;;;17.47;100.0
63691;BME280;49837;57.280;27.070;2023-08-31T01:42:50;99003.91;;;17.42;100.0
63691;BME280;49837;57.280;27.070;2023-08-31T01:43:51;99002.02;;;17.44;100.0
63691;BME280;49837;57.280;27.070;2023-08-31T01:44:51;99001.62;;;17.44;100.0
63691;BME280;49837;57.280;27.070;2023-08-31T01:45:51;99002.05;;;17.44;100.0
63691;BME280;49837;57.280;27.070;2023-08-31T01:46:53;99001.72;;;17.42;100.0
63691;BME280;49837;57.280;27.070;2023-08-31T01:47:52;98999.7;;;17.38;100.0
63691;BME280;49837;57.280;27.070;2023-08-31T01:48:53;98999.78;;;17.37;100.0
63691;BME280;49837;57.280;27.070;2023-08-31T01:49:53;99002.56;;;17.36;100.0
63691;BME280;49837;57.280;27.070;2023-08-31T01:50:54;99000.62;;;17.35;100.0
63691;BME280;49837;57.280;27.070;2023-08-31T01:51:54;98998.5;;;17.34;100.0
63691;BME280;49837;57.280;27.070;2023-08-31T01:52:54;99005.55;;;17.34;100.0
63691;BME280;49837;57.280;27.070;2023-08-31T01:53:54;99003.38;;;17.31;100.0
63691;BME280;49837;57.280;27.070;2023-08-31T01:54:55;99002.77;;;17.37;100.0
63691;BME280;49837;57.280;27.070;2023-08-31T01:55:55;98998.84;;;17.39;100.0
63691;BME280;49837;57.280;27.070;2023-08-31T01:56:56;98997.33;;;17.39;100.0
63691;BME280;49837;57.280;27.070;2023-08-31T01:57:56;99002.72;;;17.39;100.0
63691;BME280;49837;57.280;27.070;2023-08-31T01:58:56;99004.93;;;17.38;100.0
63691;BME280;49837;57.280;27.070;2023-08-31T01:59:57;99001.44;;;17.36;100.0
63691;BME280;49837;57.280;27.070;2023-08-31T02:00:57;99001.52;;;17.37;100.0
63691;BME280;49837;57.280;27.070;2023-08-31T02:01:58;99003.55;;;17.38;100.0
63691;BME280;49837;57.280;27.070;2023-08-31T02:02:58;98998.39;;;17.39;100.0
63691;BME280;49837;57.280;27.070;2023-08-31T02:03:58;98994.84;;;17.37;100.0
63691;BME280;49837;57.280;27.070;2023-08-31T02:04:59;99000.65;;;17.36;100.0
63691;BME280;49837;57.280;27.070;2023-08-31T02:05:59;99010.62;;;17.38;100.0
63691;BME280;49837;57.280;27.070;2023-08-31T02:07:00;99007.17;;;17.37;100.0
63691;BME280;49837;57.280;27.070;2023-08-31T02:08:00;99005.59;;;17.36;100.0
63691;BME280;49837;57.280;27.070;2023-08-31T02:09:00;99002.72;;;17.39;100.0
63691;BME280;49837;57.280;27.070;2023-08-31T02:10:01;99007.61;;;17.39;100.0
63691;BME280;49837;57.280;27.070;2023-08-31T02:11:01;99009.02;;;17.37;100.0
63691;BME280;49837;57.280;27.070;2023-08-31T02:12:02;99012.33;;;17.39;100.0
63691;BME280;49837;57.280;27.070;2023-08-31T02:13:02;99008.54;;;17.4;100.0
63691;BME280;49837;57.280;27.070;2023-08-31T02:14:06;99006.92;;;17.38;100.0
63691;BME280;49837;57.280;27.070;2023-08-31T02:15:07;99004.82;;;17.38;100.0
63691;BME280;49837;57.280;27.070;2023-08-31T02:16:04;99004.66;;;17.39;100.0
63691;BME280;49837;57.280;27.070;2023-08-31T02:17:05;99011.3;;;17.37;100.0
63691;BME280;49837;57.280;27.070;2023-08-31T02:18:07;99002.64;;;17.35;100.0
63691;BME280;49837;57.280;27.070;2023-08-31T02:19:05;99004.23;;;17.34;100.0
63691;BME280;49837;57.280;27.070;2023-08-31T02:20:07;99005.55;;;17.34;100.0
63691;BME280;49837;57.280;27.070;2023-08-31T02:21:06;99002.83;;;17.34;100.0
63691;BME280;49837;57.280;27.070;2023-08-31T02:22:07;99000.52;;;17.38;100.0
63691;BME280;49837;57.280;27.070;2023-08-31T02:23:07;99011.09;;;17.39;100.0
63691;BME280;49837;57.280;27.070;2023-08-31T02:24:07;99009.7;;;17.43;100.0
63691;BME280;49837;57.280;27.070;2023-08-31T02:25:08;99008.69;;;17.47;100.0
63691;BME280;49837;57.280;27.070;2023-08-31T02:26:10;99007.45;;;17.47;100.0
63691;BME280;49837;57.280;27.070;2023-08-31T02:27:08;99008.44;;;17.48;100.0
63691;BME280;49837;57.280;27.070;2023-08-31T02:28:09;99013.27;;;17.45;100.0
63691;BME280;49837;57.280;27.070;2023-08-31T02:29:09;99019.86;;;17.5;100.0
63691;BME280;49837;57.280;27.070;2023-08-31T02:30:10;99014.3;;;17.5;100.0
63691;BME280;49837;57.280;27.070;2023-08-31T02:31:10;99015.31;;;17.5;100.0
63691;BME280;49837;57.280;27.070;2023-08-31T02:32:10;99020.23;;;17.51;100.0
63691;BME280;49837;57.280;27.070;2023-08-31T02:33:11;99015.8;;;17.53;100.0
63691;BME280;49837;57.280;27.070;2023-08-31T02:34:11;99013.41;;;17.52;100.0
63691;BME280;49837;57.280;27.070;2023-08-31T02:35:11;99015.42;;;17.5;100.0
63691;BME280;49837;57.280;27.070;2023-08-31T02:36:12;99018.67;;;17.53;100.0
63691;BME280;49837;57.280;27.070;2023-08-31T02:37:12;99018.85;;;17.5;100.0
63691;BME280;49837;57.280;27.070;2023-08-31T02:38:13;99017.11;;;17.5;100.0
63691;BME280;49837;57.280;27.070;2023-08-31T02:39:13;99017.08;;;17.49;100.0
63691;BME280;49837;57.280;27.070;2023-08-31T02:40:14;99017.11;;;17.5;100.0
63691;BME280;49837;57.280;27.070;2023-08-31T02:41:14;99018.21;;;17.51;100.0
63691;BME280;49837;57.280;27.070;2023-08-31T02:42:15;99014.08;;;17.5;100.0
63691;BME280;49837;57.280;27.070;2023-08-31T02:43:15;99023.45;;;17.5;100.0
63691;BME280;49837;57.280;27.070;2023-08-31T02:44:15;99022.39;;;17.5;100.0
63691;BME280;49837;57.280;27.070;2023-08-31T02:45:15;99025.52;;;17.51;100.0
63691;BME280;49837;57.280;27.070;2023-08-31T02:46:16;99026.16;;;17.52;100.0
63691;BME280;49837;57.280;27.070;2023-08-31T02:47:16;99025.59;;;17.5;100.0
63691;BME280;49837;57.280;27.070;2023-08-31T02:48:17;99027.01;;;17.52;100.0
63691;BME280;49837;57.280;27.070;2023-08-31T02:49:17;99024.75;;;17.55;100.0
63691;BME280;49837;57.280;27.070;2023-08-31T02:50:17;99021.38;;;17.55;100.0
63691;BME280;49837;57.280;27.070;2023-08-31T02:51:18;99020.37;;;17.55;100.0
63691;BME280;49837;57.280;27.070;2023-08-31T02:52:18;99018.57;;;17.55;100.0
63691;BME280;49837;57.280;27.070;2023-08-31T02:53:19;99023.06;;;17.55;100.0
63691;BME280;49837;57.280;27.070;2023-08-31T02:54:19;99024.08;;;17.5;100.0
63691;BME280;49837;57.280;27.070;2023-08-31T02:55:19;99021.48;;;17.48;100.0
63691;BME280;49837;57.280;27.070;2023-08-31T02:56:20;99020.12;;;17.51;100.0
63691;BME280;49837;57.280;27.070;2023-08-31T02:57:20;99021.52;;;17.49;100.0
63691;BME280;49837;57.280;27.070;2023-08-31T02:58:21;99025.38;;;17.47;100.0
63691;BME280;49837;57.280;27.070;2023-08-31T02:59:21;99020.89;;;17.44;100.0
63691;BME280;49837;57.280;27.070;2023-08-31T03:00:21;99019.32;;;17.44;100.0
63691;BME280;49837;57.280;27.070;2023-08-31T03:01:22;99021.35;;;17.45;100.0
63691;BME280;49837;57.280;27.070;2023-08-31T03:02:22;99021.7;;;17.48;100.0
63691;BME280;49837;57.280;27.070;2023-08-31T03:03:23;99021.8;;;17.49;100.0
63691;BME280;49837;57.280;27.070;2023-08-31T03:04:23;99018.31;;;17.49;100.0
63691;BME280;49837;57.280;27.070;2023-08-31T03:05:23;99020.56;;;17.45;100.0
63691;BME280;49837;57.280;27.070;2023-08-31T03:06:25;99020.25;;;17.44;100.0
63691;BME280;49837;57.280;27.070;2023-08-31T03:07:24;99022.95;;;17.45;100.0
63691;BME280;49837;57.280;27.070;2023-08-31T03:08:24;99019.08;;;17.42;100.0
63691;BME280;49837;57.280;27.070;2023-08-31T03:09:25;99023.0;;;17.45;100.0
63691;BME280;49837;57.280;27.070;2023-08-31T03:10:25;99022.5;;;17.45;100.0
63691;BME280;49837;57.280;27.070;2023-08-31T03:11:26;99024.66;;;17.44;100.0
63691;BME280;49837;57.280;27.070;2023-08-31T03:12:26;99022.17;;;17.41;100.0
63691;BME280;49837;57.280;27.070;2023-08-31T03:13:26;99023.56;;;17.39;100.0
63691;BME280;49837;57.280;27.070;2023-08-31T03:14:27;99028.46;;;17.36;100.0
63691;BME280;49837;57.280;27.070;2023-08-31T03:15:27;99030.59;;;17.37;100.0
63691;BME280;49837;57.280;27.070;2023-08-31T03:16:28;99027.47;;;17.35;100.0
63691;BME280;49837;57.280;27.070;2023-08-31T03:17:28;99032.8;;;17.35;100.0
63691;BME280;49837;57.280;27.070;2023-08-31T03:18:29;99024.88;;;17.38;100.0
63691;BME280;49837;57.280;27.070;2023-08-31T03:19:29;99033.08;;;17.38;100.0
63691;BME280;49837;57.280;27.070;2023-08-31T03:20:29;99024.82;;;17.38;100.0
63691;BME280;49837;57.280;27.070;2023-08-31T03:21:30;99025.85;;;17.37;100.0
63691;BME280;49837;57.280;27.070;2023-08-31T03:22:30;99015.28;;;17.35;100.0
63691;BME280;49837;57.280;27.070;2023-08-31T03:23:31;99021.07;;;17.4;100.0
63691;BME280;49837;57.280;27.070;2023-08-31T03:24:32;99022.09;;;17.42;100.0
63691;BME280;49837;57.280;27.070;2023-08-31T03:25:31;99023.2;;;17.41;100.0
63691;BME280;49837;57.280;27.070;2023-08-31T03:26:32;99027.09;;;17.42;100.0
63691;BME280;49837;57.280;27.070;2023-08-31T03:27:32;99027.83;;;17.42;100.0
63691;BME280;49837;57.280;27.070;2023-08-31T03:28:32;99027.05;;;17.45;100.0
63691;BME280;49837;57.280;27.070;2023-08-31T03:29:33;99025.01;;;17.46;100.0
63691;BME280;49837;57.280;27.070;2023-08-31T03:30:33;99025.04;;;17.47;100.0
63691;BME280;49837;57.280;27.070;2023-08-31T03:31:34;99027.73;;;17.47;100.0
63691;BME280;49837;57.280;27.070;2023-08-31T03:32:34;99022.96;;;17.46;100.0
63691;BME280;49837;57.280;27.070;2023-08-31T03:33:34;99024.69;;;17.45;100.0
63691;BME280;49837;57.280;27.070;2023-08-31T03:34:35;99027.7;;;17.46;100.0
63691;BME280;49837;57.280;27.070;2023-08-31T03:35:35;99021.59;;;17.48;100.0
63691;BME280;49837;57.280;27.070;2023-08-31T03:36:36;99019.44;;;17.49;100.0
63691;BME280;49837;57.280;27.070;2023-08-31T03:37:36;99016.66;;;17.5;100.0
63691;BME280;49837;57.280;27.070;2023-08-31T03:38:37;99017.77;;;17.48;100.0
63691;BME280;49837;57.280;27.070;2023-08-31T03:39:37;99013.77;;;17.46;100.0
63691;BME280;49837;57.280;27.070;2023-08-31T03:40:37;99018.58;;;17.47;100.0
63691;BME280;49837;57.280;27.070;2023-08-31T03:41:37;99022.03;;;17.45;100.0
63691;BME280;49837;57.280;27.070;2023-08-31T03:42:38;99021.12;;;17.46;100.0
63691;BME280;49837;57.280;27.070;2023-08-31T03:43:38;99021.11;;;17.46;100.0
63691;BME280;49837;57.280;27.070;2023-08-31T03:44:39;99023.69;;;17.47;100.0
63691;BME280;49837;57.280;27.070;2023-08-31T03:45:39;99027.77;;;17.46;100.0
63691;BME280;49837;57.280;27.070;2023-08-31T03:46:39;99030.7;;;17.45;100.0
63691;BME280;49837;57.280;27.070;2023-08-31T03:47:40;99026.0;;;17.47;100.0
63691;BME280;49837;57.280;27.070;2023-08-31T03:48:40;99021.88;;;17.48;100.0
63691;BME280;49837;57.280;27.070;2023-08-31T03:49:41;99032.77;;;17.48;100.0
63691;BME280;49837;57.280;27.070;2023-08-31T03:50:41;99030.47;;;17.48;100.0
63691;BME280;49837;57.280;27.070;2023-08-31T03:51:42;99034.78;;;17.51;100.0
63691;BME280;49837;57.280;27.070;2023-08-31T03:52:42;99034.9;;;17.51;100.0
63691;BME280;49837;57.280;27.070;2023-08-31T03:53:42;99033.78;;;17.48;100.0
63691;BME280;49837;57.280;27.070;2023-08-31T03:54:43;99031.97;;;17.49;100.0
63691;BME280;49837;57.280;27.070;2023-08-31T03:55:43;99032.84;;;17.5;100.0
63691;BME280;49837;57.280;27.070;2023-08-31T03:56:44;99028.83;;;17.51;100.0
63691;BME280;49837;57.280;27.070;2023-08-31T03:57:44;99028.72;;;17.51;100.0
63691;BME280;49837;57.280;27.070;2023-08-31T03:58:44;99025.57;;;17.51;100.0
63691;BME280;49837;57.280;27.070;2023-08-31T03:59:45;99028.41;;;17.5;100.0
63691;BME280;49837;57.280;27.070;2023-08-31T04:00:49;99024.84;;;17.51;100.0
63691;BME280;49837;57.280;27.070;2023-08-31T04:01:46;99029.05;;;17.54;100.0
63691;BME280;49837;57.280;27.070;2023-08-31T04:02:47;99031.97;;;17.54;100.0
63691;BME280;49837;57.280;27.070;2023-08-31T04:03:47;99030.72;;;17.57;100.0
63691;BME280;49837;57.280;27.070;2023-08-31T04:04:47;99029.48;;;17.57;100.0
63691;BME280;49837;57.280;27.070;2023-08-31T04:05:48;99028.77;;;17.6;100.0
63691;BME280;49837;57.280;27.070;2023-08-31T04:06:48;99032.16;;;17.58;100.0
63691;BME280;49837;57.280;27.070;2023-08-31T04:07:49;99027.98;;;17.6;100.0
63691;BME280;49837;57.280;27.070;2023-08-31T04:08:49;99032.23;;;17.61;100.0
63691;BME280;49837;57.280;27.070;2023-08-31T04:09:50;99028.48;;;17.6;100.0
63691;BME280;49837;57.280;27.070;2023-08-31T04:10:50;99025.71;;;17.66;100.0
63691;BME280;49837;57.280;27.070;2023-08-31T04:11:50;99026.07;;;17.7;100.0
63691;BME280;49837;57.280;27.070;2023-08-31T04:12:51;99022.2;;;17.73;100.0
63691;BME280;49837;57.280;27.070;2023-08-31T04:13:51;99026.27;;;17.72;100.0
63691;BME280;49837;57.280;27.070;2023-08-31T04:14:51;99026.14;;;17.74;100.0
63691;BME280;49837;57.280;27.070;2023-08-31T04:15:55;99031.25;;;17.77;100.0
63691;BME280;49837;57.280;27.070;2023-08-31T04:16:53;99029.41;;;17.76;100.0
63691;BME280;49837;57.280;27.070;2023-08-31T04:17:52;99024.31;;;17.74;100.0
63691;BME280;49837;57.280;27.070;2023-08-31T04:18:54;99024.84;;;17.72;100.0
63691;BME280;49837;57.280;27.070;2023-08-31T04:19:54;99024.92;;;17.76;100.0
63691;BME280;49837;57.280;27.070;2023-08-31T04:20:54;99022.3;;;17.81;100.0
63691;BME280;49837;57.280;27.070;2023-08-31T04:21:55;99026.58;;;17.83;100.0
63691;BME280;49837;57.280;27.070;2023-08-31T04:22:54;99023.15;;;17.82;100.0
63691;BME280;49837;57.280;27.070;2023-08-31T04:23:55;99023.47;;;17.86;100.0
63691;BME280;49837;57.280;27.070;2023-08-31T04:24:55;99019.95;;;17.85;100.0
63691;BME280;49837;57.280;27.070;2023-08-31T04:25:56;99023.47;;;17.84;100.0
63691;BME280;49837;57.280;27.070;2023-08-31T04:26:56;99020.53;;;17.87;100.0
63691;BME280;49837;57.280;27.070;2023-08-31T04:27:57;99022.48;;;17.84;100.0
63691;BME280;49837;57.280;27.070;2023-08-31T04:28:57;99017.33;;;17.82;100.0
63691;BME280;49837;57.280;27.070;2023-08-31T04:29:59;99019.39;;;17.85;100.0
63691;BME280;49837;57.280;27.070;2023-08-31T04:30:58;99025.66;;;17.86;100.0
63691;BME280;49837;57.280;27.070;2023-08-31T04:31:58;99025.78;;;17.86;100.0
63691;BME280;49837;57.280;27.070;2023-08-31T04:32:58;99026.88;;;17.87;100.0
63691;BME280;49837;57.280;27.070;2023-08-31T04:33:59;99029.59;;;17.89;100.0
63691;BME280;49837;57.280;27.070;2023-08-31T04:34:59;99025.12;;;17.9;100.0
63691;BME280;49837;57.280;27.070;2023-08-31T04:36:00;99025.86;;;17.93;100.0
63691;BME280;49837;57.280;27.070;2023-08-31T04:37:00;99028.23;;;17.93;100.0
63691;BME280;49837;57.280;27.070;2023-08-31T04:38:00;99029.55;;;17.93;100.0
63691;BME280;49837;57.280;27.070;2023-08-31T04:39:01;99028.66;;;17.88;100.0
63691;BME280;49837;57.280;27.070;2023-08-31T04:40:02;99027.23;;;17.91;100.0
63691;BME280;49837;57.280;27.070;2023-08-31T04:41:02;99027.27;;;17.92;100.0
63691;BME280;49837;57.280;27.070;2023-08-31T04:42:02;99027.92;;;17.94;100.0
63691;BME280;49837;57.280;27.070;2023-08-31T04:43:03;99029.83;;;17.93;100.0
63691;BME280;49837;57.280;27.070;2023-08-31T04:44:03;99035.33;;;17.96;100.0
63691;BME280;49837;57.280;27.070;2023-08-31T04:45:04;99036.05;;;17.94;100.0
63691;BME280;49837;57.280;27.070;2023-08-31T04:46:04;99040.35;;;17.95;100.0
63691;BME280;49837;57.280;27.070;2023-08-31T04:47:04;99036.56;;;17.96;100.0
63691;BME280;49837;57.280;27.070;2023-08-31T04:48:05;99039.25;;;17.99;100.0
63691;BME280;49837;57.280;27.070;2023-08-31T04:49:05;99034.42;;;17.97;100.0
63691;BME280;49837;57.280;27.070;2023-08-31T04:50:06;99041.96;;;17.96;100.0
63691;BME280;49837;57.280;27.070;2023-08-31T04:51:06;99044.75;;;17.93;100.0
63691;BME280;49837;57.280;27.070;2023-08-31T04:52:06;99041.18;;;17.91;100.0
63691;BME280;49837;57.280;27.070;2023-08-31T04:53:06;99044.43;;;17.95;100.0
63691;BME280;49837;57.280;27.070;2023-08-31T04:54:07;99045.51;;;17.92;100.0
63691;BME280;49837;57.280;27.070;2023-08-31T04:55:08;99048.55;;;17.92;100.0
63691;BME280;49837;57.280;27.070;2023-08-31T04:56:08;99045.55;;;17.95;100.0
63691;BME280;49837;57.280;27.070;2023-08-31T04:57:08;99047.39;;;17.97;100.0
63691;BME280;49837;57.280;27.070;2023-08-31T04:58:09;99052.22;;;17.96;100.0
63691;BME280;49837;57.280;27.070;2023-08-31T04:59:09;99047.46;;;17.94;100.0
63691;BME280;49837;57.280;27.070;2023-08-31T05:00:10;99046.01;;;17.96;100.0
63691;BME280;49837;57.280;27.070;2023-08-31T05:01:10;99051.39;;;17.99;100.0
63691;BME280;49837;57.280;27.070;2023-08-31T05:02:10;99050.73;;;17.96;100.0
63691;BME280;49837;57.280;27.070;2023-08-31T05:03:10;99044.45;;;17.98;100.0
63691;BME280;49837;57.280;27.070;2023-08-31T05:04:11;99048.53;;;18.01;100.0
63691;BME280;49837;57.280;27.070;2023-08-31T05:05:11;99041.93;;;18.02;100.0
63691;BME280;49837;57.280;27.070;2023-08-31T05:06:12;99043.71;;;18.05;100.0
63691;BME280;49837;57.280;27.070;2023-08-31T05:07:12;99042.45;;;18.04;100.0
63691;BME280;49837;57.280;27.070;2023-08-31T05:08:12;99046.25;;;18.07;100.0
63691;BME280;49837;57.280;27.070;2023-08-31T05:09:13;99045.9;;;18.11;100.0
63691;BME280;49837;57.280;27.070;2023-08-31T05:10:13;99047.0;;;18.12;100.0
63691;BME280;49837;57.280;27.070;2023-08-31T05:11:14;99049.78;;;18.12;100.0
63691;BME280;49837;57.280;27.070;2023-08-31T05:12:14;99050.81;;;18.16;100.0
63691;BME280;49837;57.280;27.070;2023-08-31T05:13:14;99051.97;;;18.18;100.0
63691;BME280;49837;57.280;27.070;2023-08-31T05:14:15;99047.71;;;18.22;100.0
63691;BME280;49837;57.280;27.070;2023-08-31T05:15:16;99048.88;;;18.18;100.0
63691;BME280;49837;57.280;27.070;2023-08-31T05:16:16;99048.36;;;18.23;100.0
63691;BME280;49837;57.280;27.070;2023-08-31T05:17:16;99045.33;;;18.25;100.0
63691;BME280;49837;57.280;27.070;2023-08-31T05:18:17;99044.81;;;18.3;100.0
63691;BME280;49837;57.280;27.070;2023-08-31T05:19:17;99047.45;;;18.27;100.0
63691;BME280;49837;57.280;27.070;2023-08-31T05:20:17;99045.58;;;18.31;100.0
63691;BME280;49837;57.280;27.070;2023-08-31T05:21:18;99047.11;;;18.36;100.0
63691;BME280;49837;57.280;27.070;2023-08-31T05:22:18;99046.64;;;18.32;100.0
63691;BME280;49837;57.280;27.070;2023-08-31T05:23:19;99048.61;;;18.31;100.0
63691;BME280;49837;57.280;27.070;2023-08-31T05:24:19;99048.98;;;18.35;100.0
63691;BME280;49837;57.280;27.070;2023-08-31T05:25:19;99048.0;;;18.34;100.0
63691;BME280;49837;57.280;27.070;2023-08-31T05:26:20;99053.67;;;18.39;100.0
63691;BME280;49837;57.280;27.070;2023-08-31T05:27:20;99052.52;;;18.38;100.0
63691;BME280;49837;57.280;27.070;2023-08-31T05:28:21;99055.38;;;18.44;100.0
63691;BME280;49837;57.280;27.070;2023-08-31T05:29:21;99054.38;;;18.49;100.0